KMCN/MCN METAR and TAF weather

Enter ICAO airport designator
Station Type Date Time Source
KMCN METAR 2019/10/19 06:53 UTC NOAA

KMCN 190653Z AUTO 08006KT 10SM FEW047 SCT060 OVC090 17/11 A2993 RMK AO2 SLP131 T01670106


Station Type Date Time Source
KMCN Decoded METAR 2019/10/19 06:53 UTC NOAA

MIDDLE GEORGIA REGIONAL AIRPORT , GA, United States (KMCN) 32-41N 83-39W 109M
Oct 19, 2019 - 02:53 AM EDT / 2019.10.19 0653 UTC
Wind: from the E (080 degrees) at 7 MPH (6 KT):0
Visibility: 10 mile(s):0
Sky conditions: overcast
Temperature: 62.1 F (16.7 C)
Dew Point: 51.1 F (10.6 C)
Relative Humidity: 67%
Pressure (altimeter): 29.93 in. Hg (1013 hPa)
ob: KMCN 190653Z AUTO 08006KT 10SM FEW047 SCT060 OVC090 17/11 A2993 RMK AO2 SLP131 T01670106
cycle: 7

Station Type Date Time Source
KMCN TAF 2019/10/19 06:27 UTC NOAA

TAF KMCN 190525Z 1906/2006 09008KT P6SM OVC050
FM190700 08010KT P6SM -SHRA SCT010 OVC030
FM190900 08012G22KT P6SM -SHRA OVC008
FM191300 06018G30KT 3SM SHRA BR OVC005
FM192100 01014G27KT 4SM -SHRA BR OVC006
FM200300 31005KT 4SM BR VCSH OVC006

Example: see airport list